sensor_id;sensor_type;location;lat;lon;timestamp;pressure;altitude;pressure_sealevel;temperature;humidity
51928;BME280;37953;52.806;18.270;2023-10-08T00:00:48;100382.63;;;12.83;100.00
51928;BME280;37953;52.806;18.270;2023-10-08T00:03:40;100385.22;;;12.83;100.00
51928;BME280;37953;52.806;18.270;2023-10-08T00:06:14;100394.78;;;12.83;100.00
51928;BME280;37953;52.806;18.270;2023-10-08T00:08:40;100393.06;;;12.82;100.00
51928;BME280;37953;52.806;18.270;2023-10-08T00:11:13;100392.19;;;12.81;100.00
51928;BME280;37953;52.806;18.270;2023-10-08T00:13:42;100386.13;;;12.81;100.00
51928;BME280;37953;52.806;18.270;2023-10-08T00:16:10;100382.66;;;12.79;100.00
51928;BME280;37953;52.806;18.270;2023-10-08T00:18:39;100393.09;;;12.79;100.00
51928;BME280;37953;52.806;18.270;2023-10-08T00:21:15;100411.34;;;12.79;100.00
51928;BME280;37953;52.806;18.270;2023-10-08T00:23:44;100417.41;;;12.78;100.00
51928;BME280;37953;52.806;18.270;2023-10-08T00:26:25;100408.72;;;12.77;100.00
51928;BME280;37953;52.806;18.270;2023-10-08T00:29:01;100400.06;;;12.78;100.00
51928;BME280;37953;52.806;18.270;2023-10-08T00:31:34;100399.16;;;12.78;100.00
51928;BME280;37953;52.806;18.270;2023-10-08T00:34:06;100409.63;;;12.75;100.00
51928;BME280;37953;52.806;18.270;2023-10-08T00:36:34;100401.81;;;12.73;100.00
51928;BME280;37953;52.806;18.270;2023-10-08T00:38:59;100390.53;;;12.73;100.00
51928;BME280;37953;52.806;18.270;2023-10-08T00:41:26;100413.13;;;12.72;100.00
51928;BME280;37953;52.806;18.270;2023-10-08T00:43:58;100412.25;;;12.72;100.00
51928;BME280;37953;52.806;18.270;2023-10-08T00:46:31;100406.16;;;12.70;100.00
51928;BME280;37953;52.806;18.270;2023-10-08T00:49:02;100411.41;;;12.68;100.00
51928;BME280;37953;52.806;18.270;2023-10-08T00:51:42;100409.66;;;12.67;100.00
51928;BME280;37953;52.806;18.270;2023-10-08T00:54:08;100418.34;;;12.68;100.00
51928;BME280;37953;52.806;18.270;2023-10-08T00:56:36;100414.03;;;12.67;100.00
51928;BME280;37953;52.806;18.270;2023-10-08T00:59:16;100410.56;;;12.66;100.00
51928;BME280;37953;52.806;18.270;2023-10-08T01:01:43;100420.13;;;12.64;100.00
51928;BME280;37953;52.806;18.270;2023-10-08T01:04:22;100429.66;;;12.65;100.00
51928;BME280;37953;52.806;18.270;2023-10-08T01:06:56;100422.69;;;12.66;100.00
51928;BME280;37953;52.806;18.270;2023-10-08T01:09:25;100425.34;;;12.62;100.00
51928;BME280;37953;52.806;18.270;2023-10-08T01:12:22;100411.41;;;12.63;100.00
51928;BME280;37953;52.806;18.270;2023-10-08T01:14:55;100414.91;;;12.62;100.00
51928;BME280;37953;52.806;18.270;2023-10-08T01:17:22;100424.47;;;12.60;100.00
51928;BME280;37953;52.806;18.270;2023-10-08T01:19:53;100427.94;;;12.61;100.00
51928;BME280;37953;52.806;18.270;2023-10-08T01:22:32;100424.47;;;12.60;100.00
51928;BME280;37953;52.806;18.270;2023-10-08T01:24:58;100417.53;;;12.61;100.00
51928;BME280;37953;52.806;18.270;2023-10-08T01:27:33;100422.72;;;12.61;100.00
51928;BME280;37953;52.806;18.270;2023-10-08T01:30:01;100432.31;;;12.60;100.00
51928;BME280;37953;52.806;18.270;2023-10-08T01:32:49;100455.75;;;12.60;100.00
51928;BME280;37953;52.806;18.270;2023-10-08T01:35:15;100447.09;;;12.58;100.00
51928;BME280;37953;52.806;18.270;2023-10-08T01:37:50;100440.16;;;12.56;100.00
51928;BME280;37953;52.806;18.270;2023-10-08T01:40:17;100451.44;;;12.55;100.00
51928;BME280;37953;52.806;18.270;2023-10-08T01:42:43;100477.53;;;12.53;100.00
51928;BME280;37953;52.806;18.270;2023-10-08T01:45:09;100470.59;;;12.49;100.00
51928;BME280;37953;52.806;18.270;2023-10-08T01:47:38;100474.06;;;12.50;100.00
51928;BME280;37953;52.806;18.270;2023-10-08T01:50:05;100487.94;;;12.49;100.00
51928;BME280;37953;52.806;18.270;2023-10-08T01:52:37;100494.91;;;12.50;100.00
51928;BME280;37953;52.806;18.270;2023-10-08T01:55:06;100504.47;;;12.49;100.00
51928;BME280;37953;52.806;18.270;2023-10-08T01:57:46;100494.91;;;12.50;100.00
51928;BME280;37953;52.806;18.270;2023-10-08T02:00:13;100504.47;;;12.48;100.00
51928;BME280;37953;52.806;18.270;2023-10-08T02:02:52;100508.81;;;12.47;100.00
51928;BME280;37953;52.806;18.270;2023-10-08T02:05:19;100503.59;;;12.44;100.00
51928;BME280;37953;52.806;18.270;2023-10-08T02:07:46;100502.75;;;12.42;100.00
51928;BME280;37953;52.806;18.270;2023-10-08T02:10:12;100513.19;;;12.40;100.00
51928;BME280;37953;52.806;18.270;2023-10-08T02:12:40;100523.63;;;12.39;100.00
51928;BME280;37953;52.806;18.270;2023-10-08T02:15:07;100538.38;;;12.37;100.00
51928;BME280;37953;52.806;18.270;2023-10-08T02:17:33;100518.41;;;12.36;100.00
51928;BME280;37953;52.806;18.270;2023-10-08T02:20:06;100540.97;;;12.34;100.00
51928;BME280;37953;52.806;18.270;2023-10-08T02:22:32;100535.81;;;12.32;100.00
51928;BME280;37953;52.806;18.270;2023-10-08T02:24:59;100518.44;;;12.30;100.00
51928;BME280;37953;52.806;18.270;2023-10-08T02:27:27;100525.41;;;12.28;100.00
51928;BME280;37953;52.806;18.270;2023-10-08T02:30:00;100542.75;;;12.29;100.00
51928;BME280;37953;52.806;18.270;2023-10-08T02:32:29;100542.75;;;12.27;100.00
51928;BME280;37953;52.806;18.270;2023-10-08T02:34:54;100545.38;;;12.26;100.00
51928;BME280;37953;52.806;18.270;2023-10-08T02:37:33;100564.47;;;12.28;100.00
51928;BME280;37953;52.806;18.270;2023-10-08T02:40:00;100561.84;;;12.25;100.00
51928;BME280;37953;52.806;18.270;2023-10-08T02:42:37;100554.94;;;12.22;100.00
51928;BME280;37953;52.806;18.270;2023-10-08T02:45:03;100573.16;;;12.19;100.00
51928;BME280;37953;52.806;18.270;2023-10-08T02:47:29;100572.31;;;12.15;100.00
51928;BME280;37953;52.806;18.270;2023-10-08T02:49:55;100573.16;;;12.17;100.00
51928;BME280;37953;52.806;18.270;2023-10-08T02:52:21;100580.09;;;12.17;100.00
51928;BME280;37953;52.806;18.270;2023-10-08T02:54:47;100580.09;;;12.12;100.00
51928;BME280;37953;52.806;18.270;2023-10-08T02:57:13;100581.84;;;12.12;100.00
51928;BME280;37953;52.806;18.270;2023-10-08T02:59:40;100589.66;;;12.10;100.00
51928;BME280;37953;52.806;18.270;2023-10-08T03:02:13;100598.38;;;12.11;100.00
51928;BME280;37953;52.806;18.270;2023-10-08T03:04:48;100599.22;;;12.08;100.00
51928;BME280;37953;52.806;18.270;2023-10-08T03:07:16;100602.69;;;12.07;100.00
51928;BME280;37953;52.806;18.270;2023-10-08T03:09:56;100607.91;;;12.07;100.00
51928;BME280;37953;52.806;18.270;2023-10-08T03:12:51;100612.25;;;12.05;100.00
51928;BME280;37953;52.806;18.270;2023-10-08T03:15:17;100627.00;;;12.03;100.00
51928;BME280;37953;52.806;18.270;2023-10-08T03:18:03;100629.59;;;12.01;100.00
51928;BME280;37953;52.806;18.270;2023-10-08T03:20:42;100636.53;;;11.98;100.00
51928;BME280;37953;52.806;18.270;2023-10-08T03:23:10;100644.34;;;11.95;100.00
51928;BME280;37953;52.806;18.270;2023-10-08T03:25:53;100651.31;;;12.05;100.00
51928;BME280;37953;52.806;18.270;2023-10-08T03:28:22;100641.78;;;11.92;100.00
51928;BME280;37953;52.806;18.270;2023-10-08T03:30:59;100646.94;;;11.86;100.00
51928;BME280;37953;52.806;18.270;2023-10-08T03:33:33;100649.53;;;11.78;100.00
51928;BME280;37953;52.806;18.270;2023-10-08T03:36:12;100662.53;;;11.76;100.00
51928;BME280;37953;52.806;18.270;2023-10-08T03:38:53;100664.28;;;11.71;100.00
51928;BME280;37953;52.806;18.270;2023-10-08T03:41:23;100661.66;;;11.65;100.00
51928;BME280;37953;52.806;18.270;2023-10-08T03:43:58;100661.66;;;11.60;100.00
51928;BME280;37953;52.806;18.270;2023-10-08T03:46:28;100671.19;;;11.57;100.00
51928;BME280;37953;52.806;18.270;2023-10-08T03:48:54;100672.94;;;11.52;100.00
51928;BME280;37953;52.806;18.270;2023-10-08T03:51:26;100677.25;;;11.50;100.00
51928;BME280;37953;52.806;18.270;2023-10-08T03:53:58;100687.63;;;11.47;100.00
51928;BME280;37953;52.806;18.270;2023-10-08T03:56:25;100687.63;;;11.42;100.00
51928;BME280;37953;52.806;18.270;2023-10-08T03:58:55;100696.31;;;11.41;100.00
51928;BME280;37953;52.806;18.270;2023-10-08T04:01:46;100706.69;;;11.36;100.00
51928;BME280;37953;52.806;18.270;2023-10-08T04:04:21;100709.28;;;11.32;100.00
51928;BME280;37953;52.806;18.270;2023-10-08T04:06:56;100711.84;;;11.24;100.00
51928;BME280;37953;52.806;18.270;2023-10-08T04:09:42;100721.38;;;11.20;100.00
51928;BME280;37953;52.806;18.270;2023-10-08T04:12:07;100725.69;;;11.15;100.00
51928;BME280;37953;52.806;18.270;2023-10-08T04:14:36;100736.94;;;11.13;100.00
51928;BME280;37953;52.806;18.270;2023-10-08T04:17:08;100739.53;;;11.10;100.00
51928;BME280;37953;52.806;18.270;2023-10-08T04:19:36;100748.16;;;11.06;100.00
51928;BME280;37953;52.806;18.270;2023-10-08T04:22:02;100750.72;;;11.03;100.00
51928;BME280;37953;52.806;18.270;2023-10-08T04:24:29;100749.00;;;11.00;100.00
51928;BME280;37953;52.806;18.270;2023-10-08T04:26:59;100750.81;;;11.12;100.00
51928;BME280;37953;52.806;18.270;2023-10-08T04:29:29;100762.00;;;10.98;100.00
51928;BME280;37953;52.806;18.270;2023-10-08T04:31:59;100765.41;;;10.91;100.00
51928;BME280;37953;52.806;18.270;2023-10-08T04:34:35;100773.19;;;10.88;100.00
51928;BME280;37953;52.806;18.270;2023-10-08T04:37:02;100775.75;;;10.82;100.00
51928;BME280;37953;52.806;18.270;2023-10-08T04:39:29;100777.47;;;10.78;100.00
51928;BME280;37953;52.806;18.270;2023-10-08T04:42:02;100780.06;;;10.78;100.00
51928;BME280;37953;52.806;18.270;2023-10-08T04:44:40;100793.88;;;10.74;100.00
51928;BME280;37953;52.806;18.270;2023-10-08T04:47:09;100792.13;;;10.70;100.00
51928;BME280;37953;52.806;18.270;2023-10-08T04:49:35;100798.16;;;10.68;100.00
51928;BME280;37953;52.806;18.270;2023-10-08T04:52:05;100799.03;;;10.65;100.00
51928;BME280;37953;52.806;18.270;2023-10-08T04:54:40;100808.53;;;10.63;100.00
51928;BME280;37953;52.806;18.270;2023-10-08T04:57:07;100803.31;;;10.58;100.00
51928;BME280;37953;52.806;18.270;2023-10-08T04:59:44;100811.09;;;10.57;100.00
51928;BME280;37953;52.806;18.270;2023-10-08T05:02:12;100807.56;;;10.50;100.00
51928;BME280;37953;52.806;18.270;2023-10-08T05:04:44;100811.91;;;10.50;100.00
51928;BME280;37953;52.806;18.270;2023-10-08T05:07:12;100814.44;;;10.47;100.00
51928;BME280;37953;52.806;18.270;2023-10-08T05:09:52;100828.31;;;10.46;100.00
51928;BME280;37953;52.806;18.270;2023-10-08T05:12:32;100828.25;;;10.43;100.00
51928;BME280;37953;52.806;18.270;2023-10-08T05:15:01;100831.69;;;10.38;100.00
51928;BME280;37953;52.806;18.270;2023-10-08T05:17:43;100827.38;;;10.37;100.00
51928;BME280;37953;52.806;18.270;2023-10-08T05:20:32;100835.13;;;10.36;100.00
51928;BME280;37953;52.806;18.270;2023-10-08T05:23:12;100842.88;;;10.31;99.50
51928;BME280;37953;52.806;18.270;2023-10-08T05:25:53;100844.63;;;10.31;98.05
51928;BME280;37953;52.806;18.270;2023-10-08T05:31:11;100864.44;;;10.27;97.71
51928;BME280;37953;52.806;18.270;2023-10-08T05:33:37;100873.97;;;10.27;97.41
51928;BME280;37953;52.806;18.270;2023-10-08T05:36:17;100880.03;;;10.27;97.40
51928;BME280;37953;52.806;18.270;2023-10-08T05:38:54;100893.00;;;10.27;97.20
51928;BME280;37953;52.806;18.270;2023-10-08T05:41:27;100895.59;;;10.27;96.82
51928;BME280;37953;52.806;18.270;2023-10-08T05:44:13;100906.84;;;10.25;97.37
51928;BME280;37953;52.806;18.270;2023-10-08T05:46:45;100898.13;;;10.21;98.00
51928;BME280;37953;52.806;18.270;2023-10-08T05:49:35;100904.19;;;10.22;97.67
51928;BME280;37953;52.806;18.270;2023-10-08T05:52:00;100914.56;;;10.22;98.23
51928;BME280;37953;52.806;18.270;2023-10-08T05:54:30;100918.03;;;10.21;98.98
51928;BME280;37953;52.806;18.270;2023-10-08T05:57:01;100924.16;;;10.26;99.54
51928;BME280;37953;52.806;18.270;2023-10-08T05:59:44;100920.78;;;10.31;99.63
51928;BME280;37953;52.806;18.270;2023-10-08T06:02:27;100923.38;;;10.30;100.00
51928;BME280;37953;52.806;18.270;2023-10-08T06:04:57;100920.81;;;10.33;100.00
51928;BME280;37953;52.806;18.270;2023-10-08T06:07:57;100931.25;;;10.37;100.00
51928;BME280;37953;52.806;18.270;2023-10-08T06:10:43;100932.94;;;10.34;100.00
51928;BME280;37953;52.806;18.270;2023-10-08T06:13:13;100937.22;;;10.30;99.39
51928;BME280;37953;52.806;18.270;2023-10-08T06:16:03;100944.97;;;10.29;100.00
51928;BME280;37953;52.806;18.270;2023-10-08T06:18:29;100953.59;;;10.28;100.00
51928;BME280;37953;52.806;18.270;2023-10-08T06:20:58;100949.34;;;10.30;100.00
51928;BME280;37953;52.806;18.270;2023-10-08T06:23:28;100947.59;;;10.30;100.00
51928;BME280;37953;52.806;18.270;2023-10-08T06:25:57;100951.94;;;10.30;100.00
51928;BME280;37953;52.806;18.270;2023-10-08T06:28:39;100970.16;;;10.33;100.00
51928;BME280;37953;52.806;18.270;2023-10-08T06:31:06;100960.59;;;10.30;100.00
51928;BME280;37953;52.806;18.270;2023-10-08T06:33:41;100977.06;;;10.32;100.00
51928;BME280;37953;52.806;18.270;2023-10-08T06:36:07;100984.00;;;10.33;100.00
51928;BME280;37953;52.806;18.270;2023-10-08T06:38:42;101002.16;;;10.32;99.30
51928;BME280;37953;52.806;18.270;2023-10-08T06:41:12;100995.25;;;10.31;98.88
51928;BME280;37953;52.806;18.270;2023-10-08T06:43:45;101008.25;;;10.34;98.50
51928;BME280;37953;52.806;18.270;2023-10-08T06:46:16;101006.50;;;10.34;98.59
51928;BME280;37953;52.806;18.270;2023-10-08T06:48:45;101009.13;;;10.36;99.00
51928;BME280;37953;52.806;18.270;2023-10-08T06:51:13;101019.53;;;10.36;98.11
51928;BME280;37953;52.806;18.270;2023-10-08T06:53:39;101026.47;;;10.38;97.71
51928;BME280;37953;52.806;18.270;2023-10-08T06:56:05;101029.94;;;10.39;97.78
51928;BME280;37953;52.806;18.270;2023-10-08T06:58:57;101035.22;;;10.44;96.67
51928;BME280;37953;52.806;18.270;2023-10-08T07:01:24;101042.97;;;10.42;96.52
51928;BME280;37953;52.806;18.270;2023-10-08T07:03:51;101046.44;;;10.43;96.07
51928;BME280;37953;52.806;18.270;2023-10-08T07:06:23;101044.78;;;10.48;95.33
51928;BME280;37953;52.806;18.270;2023-10-08T07:08:58;101059.47;;;10.47;94.42
51928;BME280;37953;52.806;18.270;2023-10-08T07:11:26;101050.84;;;10.48;93.41
51928;BME280;37953;52.806;18.270;2023-10-08T07:13:52;101052.59;;;10.49;92.42
51928;BME280;37953;52.806;18.270;2023-10-08T07:16:19;101060.38;;;10.49;91.56
51928;BME280;37953;52.806;18.270;2023-10-08T07:18:46;101056.06;;;10.51;91.22
51928;BME280;37953;52.806;18.270;2023-10-08T07:21:25;101059.53;;;10.52;90.47
51928;BME280;37953;52.806;18.270;2023-10-08T07:24:05;101060.44;;;10.54;89.16
51928;BME280;37953;52.806;18.270;2023-10-08T07:26:35;101059.59;;;10.55;88.76
51928;BME280;37953;52.806;18.270;2023-10-08T07:29:31;101072.63;;;10.59;88.53
51928;BME280;37953;52.806;18.270;2023-10-08T07:31:58;101078.66;;;10.57;88.27
51928;BME280;37953;52.806;18.270;2023-10-08T07:34:37;101088.19;;;10.58;87.14
51928;BME280;37953;52.806;18.270;2023-10-08T07:37:03;101080.41;;;10.58;86.99
51928;BME280;37953;52.806;18.270;2023-10-08T07:39:31;101085.63;;;10.59;85.96
51928;BME280;37953;52.806;18.270;2023-10-08T07:42:15;101092.56;;;10.62;85.74
51928;BME280;37953;52.806;18.270;2023-10-08T07:44:41;101096.97;;;10.65;84.66
51928;BME280;37953;52.806;18.270;2023-10-08T07:47:07;101098.69;;;10.66;83.71
51928;BME280;37953;52.806;18.270;2023-10-08T07:49:38;101097.81;;;10.67;83.13
51928;BME280;37953;52.806;18.270;2023-10-08T07:52:05;101096.97;;;10.66;82.70
51928;BME280;37953;52.806;18.270;2023-10-08T07:54:32;101095.25;;;10.68;82.88
51928;BME280;37953;52.806;18.270;2023-10-08T07:57:02;101099.63;;;10.69;83.63
51928;BME280;37953;52.806;18.270;2023-10-08T07:59:39;101102.22;;;10.71;83.95
51928;BME280;37953;52.806;18.270;2023-10-08T08:02:13;101112.59;;;10.71;82.40
51928;BME280;37953;52.806;18.270;2023-10-08T08:04:41;101097.91;;;10.71;81.37
51928;BME280;37953;52.806;18.270;2023-10-08T08:07:19;101105.72;;;10.74;81.79
51928;BME280;37953;52.806;18.270;2023-10-08T08:09:48;101110.94;;;10.74;81.09
51928;BME280;37953;52.806;18.270;2023-10-08T08:12:21;101109.25;;;10.78;80.16
51928;BME280;37953;52.806;18.270;2023-10-08T08:14:47;101115.34;;;10.80;80.51
51928;BME280;37953;52.806;18.270;2023-10-08T08:17:14;101106.66;;;10.81;79.98
51928;BME280;37953;52.806;18.270;2023-10-08T08:19:45;101105.84;;;10.82;79.60
51928;BME280;37953;52.806;18.270;2023-10-08T08:22:13;101116.25;;;10.85;78.76
51928;BME280;37953;52.806;18.270;2023-10-08T08:25:02;101124.97;;;10.89;78.87
51928;BME280;37953;52.806;18.270;2023-10-08T08:27:43;101125.00;;;10.92;78.06
51928;BME280;37953;52.806;18.270;2023-10-08T08:30:15;101130.22;;;10.93;77.48
51928;BME280;37953;52.806;18.270;2023-10-08T08:32:45;101136.28;;;10.94;78.17
51928;BME280;37953;52.806;18.270;2023-10-08T08:35:14;101126.81;;;10.99;78.50
51928;BME280;37953;52.806;18.270;2023-10-08T08:37:45;101136.41;;;11.03;79.34
51928;BME280;37953;52.806;18.270;2023-10-08T08:40:18;101141.59;;;11.05;78.59
51928;BME280;37953;52.806;18.270;2023-10-08T08:42:48;101133.81;;;11.06;78.78
51928;BME280;37953;52.806;18.270;2023-10-08T08:45:32;101136.47;;;11.09;78.29
51928;BME280;37953;52.806;18.270;2023-10-08T08:48:03;101139.97;;;11.13;77.17
51928;BME280;37953;52.806;18.270;2023-10-08T08:50:30;101146.94;;;11.15;76.60
51928;BME280;37953;52.806;18.270;2023-10-08T08:53:05;101151.31;;;11.19;76.87
51928;BME280;37953;52.806;18.270;2023-10-08T08:55:32;101148.72;;;11.21;75.33
51928;BME280;37953;52.806;18.270;2023-10-08T08:57:59;101150.47;;;11.24;75.72
51928;BME280;37953;52.806;18.270;2023-10-08T09:00:27;101144.47;;;11.28;76.57
51928;BME280;37953;52.806;18.270;2023-10-08T09:02:55;101162.72;;;11.31;75.36
51928;BME280;37953;52.806;18.270;2023-10-08T09:05:21;101162.72;;;11.32;74.34
51928;BME280;37953;52.806;18.270;2023-10-08T09:08:02;101162.78;;;11.37;74.08
51928;BME280;37953;52.806;18.270;2023-10-08T09:10:30;101173.19;;;11.38;72.52
51928;BME280;37953;52.806;18.270;2023-10-08T09:13:04;101151.53;;;11.39;72.36
51928;BME280;37953;52.806;18.270;2023-10-08T09:15:34;101156.75;;;11.43;72.46
51928;BME280;37953;52.806;18.270;2023-10-08T09:18:02;101164.63;;;11.47;73.60
51928;BME280;37953;52.806;18.270;2023-10-08T09:20:31;101163.75;;;11.48;73.99
51928;BME280;37953;52.806;18.270;2023-10-08T09:23:14;101170.78;;;11.54;71.78
51928;BME280;37953;52.806;18.270;2023-10-08T09:25:46;101160.34;;;11.54;69.67
51928;BME280;37953;52.806;18.270;2023-10-08T09:28:16;101176.00;;;11.57;70.01
51928;BME280;37953;52.806;18.270;2023-10-08T09:30:47;101169.94;;;11.58;68.29
51928;BME280;37953;52.806;18.270;2023-10-08T09:33:19;101175.19;;;11.63;68.41
51928;BME280;37953;52.806;18.270;2023-10-08T09:35:46;101181.28;;;11.65;68.60
51928;BME280;37953;52.806;18.270;2023-10-08T09:38:12;101174.34;;;11.68;68.69
51928;BME280;37953;52.806;18.270;2023-10-08T09:40:41;101172.66;;;11.72;67.89
51928;BME280;37953;52.806;18.270;2023-10-08T09:43:11;101180.50;;;11.76;66.16
51928;BME280;37953;52.806;18.270;2023-10-08T09:45:52;101178.78;;;11.78;64.84
51928;BME280;37953;52.806;18.270;2023-10-08T09:48:20;101184.91;;;11.79;64.88
51928;BME280;37953;52.806;18.270;2023-10-08T09:50:50;101173.63;;;11.81;65.14
51928;BME280;37953;52.806;18.270;2023-10-08T09:53:26;101171.94;;;11.87;64.58
51928;BME280;37953;52.806;18.270;2023-10-08T09:56:31;101159.84;;;11.90;66.25
51928;BME280;37953;52.806;18.270;2023-10-08T09:59:23;101163.34;;;11.95;67.17
51928;BME280;37953;52.806;18.270;2023-10-08T10:01:52;101168.59;;;12.00;68.24
51928;BME280;37953;52.806;18.270;2023-10-08T10:04:30;101167.81;;;12.07;69.42
51928;BME280;37953;52.806;18.270;2023-10-08T10:07:10;101183.44;;;12.09;68.56
51928;BME280;37953;52.806;18.270;2023-10-08T10:09:40;101173.03;;;12.12;67.76
51928;BME280;37953;52.806;18.270;2023-10-08T10:12:11;101178.25;;;12.15;65.52
51928;BME280;37953;52.806;18.270;2023-10-08T10:14:47;101192.22;;;12.20;65.90
51928;BME280;37953;52.806;18.270;2023-10-08T10:20:04;101194.00;;;12.26;65.74
51928;BME280;37953;52.806;18.270;2023-10-08T10:22:51;101188.78;;;12.27;65.54
51928;BME280;37953;52.806;18.270;2023-10-08T10:25:17;101201.81;;;12.29;64.76
51928;BME280;37953;52.806;18.270;2023-10-08T10:30:24;101195.78;;;12.34;63.65
51928;BME280;37953;52.806;18.270;2023-10-08T10:33:03;101192.34;;;12.38;64.20
51928;BME280;37953;52.806;18.270;2023-10-08T10:35:31;101204.53;;;12.42;65.43
51928;BME280;37953;52.806;18.270;2023-10-08T10:38:01;101197.59;;;12.43;63.43
51928;BME280;37953;52.806;18.270;2023-10-08T10:40:32;101207.16;;;12.47;64.02
51928;BME280;37953;52.806;18.270;2023-10-08T10:43:15;101195.88;;;12.47;61.87
51928;BME280;37953;52.806;18.270;2023-10-08T10:45:41;101193.25;;;12.45;62.19
51928;BME280;37953;52.806;18.270;2023-10-08T10:48:13;101195.00;;;12.51;63.70
51928;BME280;37953;52.806;18.270;2023-10-08T10:50:50;101194.19;;;12.53;63.01
51928;BME280;37953;52.806;18.270;2023-10-08T10:53:29;101192.47;;;12.55;63.20
51928;BME280;37953;52.806;18.270;2023-10-08T10:55:56;101195.94;;;12.59;64.09
51928;BME280;37953;52.806;18.270;2023-10-08T10:58:31;101196.84;;;12.66;64.89
51928;BME280;37953;52.806;18.270;2023-10-08T11:01:12;101202.09;;;12.70;63.70
51928;BME280;37953;52.806;18.270;2023-10-08T11:04:13;101189.97;;;12.75;64.14
51928;BME280;37953;52.806;18.270;2023-10-08T11:06:48;101202.16;;;12.81;64.09
51928;BME280;37953;52.806;18.270;2023-10-08T11:09:27;101189.09;;;12.82;63.11
51928;BME280;37953;52.806;18.270;2023-10-08T11:12:04;101192.63;;;12.88;63.52
51928;BME280;37953;52.806;18.270;2023-10-08T11:14:38;101206.56;;;12.93;63.07
51928;BME280;37953;52.806;18.270;2023-10-08T11:17:23;101197.00;;;12.96;62.30
51928;BME280;37953;52.806;18.270;2023-10-08T11:20:28;101198.75;;;12.99;59.59
51928;BME280;37953;52.806;18.270;2023-10-08T11:22:55;101202.22;;;12.99;59.85
51928;BME280;37953;52.806;18.270;2023-10-08T11:25:22;101210.06;;;13.01;60.01
51928;BME280;37953;52.806;18.270;2023-10-08T11:27:53;101197.91;;;13.03;57.78
51928;BME280;37953;52.806;18.270;2023-10-08T11:30:40;101200.53;;;13.08;57.04
51928;BME280;37953;52.806;18.270;2023-10-08T11:33:14;101207.50;;;13.12;57.12
51928;BME280;37953;52.806;18.270;2023-10-08T11:36:00;101204.94;;;13.15;57.74
51928;BME280;37953;52.806;18.270;2023-10-08T11:38:37;101198.84;;;13.19;57.86
51928;BME280;37953;52.806;18.270;2023-10-08T11:41:13;101201.44;;;13.20;57.29
51928;BME280;37953;52.806;18.270;2023-10-08T11:43:56;101204.94;;;13.24;59.02
51928;BME280;37953;52.806;18.270;2023-10-08T11:46:24;101217.16;;;13.25;57.38
51928;BME280;37953;52.806;18.270;2023-10-08T11:48:59;101205.84;;;13.28;57.92
51928;BME280;37953;52.806;18.270;2023-10-08T11:51:32;101201.50;;;13.28;57.39
51928;BME280;37953;52.806;18.270;2023-10-08T11:54:05;101201.53;;;13.30;57.95
51928;BME280;37953;52.806;18.270;2023-10-08T11:56:33;101198.06;;;13.32;57.37
51928;BME280;37953;52.806;18.270;2023-10-08T11:59:19;101211.09;;;13.32;54.81
51928;BME280;37953;52.806;18.270;2023-10-08T12:01:46;101210.25;;;13.35;52.75
51928;BME280;37953;52.806;18.270;2023-10-08T12:04:14;101218.09;;;13.36;51.97
51928;BME280;37953;52.806;18.270;2023-10-08T12:06:42;101223.28;;;13.35;48.52
51928;BME280;37953;52.806;18.270;2023-10-08T12:09:34;101227.66;;;13.39;48.78
51928;BME280;37953;52.806;18.270;2023-10-08T12:12:18;101220.69;;;13.41;49.38
51928;BME280;37953;52.806;18.270;2023-10-08T12:14:51;101225.94;;;13.42;49.65
51928;BME280;37953;52.806;18.270;2023-10-08T12:17:20;101221.59;;;13.44;48.51
51928;BME280;37953;52.806;18.270;2023-10-08T12:20:10;101221.56;;;13.46;47.93
51928;BME280;37953;52.806;18.270;2023-10-08T12:22:49;101232.03;;;13.48;47.82
51928;BME280;37953;52.806;18.270;2023-10-08T12:25:16;101231.19;;;13.49;47.40
51928;BME280;37953;52.806;18.270;2023-10-08T12:27:45;101236.38;;;13.47;45.87
51928;BME280;37953;52.806;18.270;2023-10-08T12:30:18;101231.16;;;13.47;45.44
51928;BME280;37953;52.806;18.270;2023-10-08T12:32:44;101226.81;;;13.48;44.20
51928;BME280;37953;52.806;18.270;2023-10-08T12:35:12;101225.06;;;13.47;43.33
51928;BME280;37953;52.806;18.270;2023-10-08T12:37:39;101240.75;;;13.47;42.84
51928;BME280;37953;52.806;18.270;2023-10-08T12:40:07;101226.78;;;13.41;42.53
51928;BME280;37953;52.806;18.270;2023-10-08T12:43:01;101239.84;;;13.48;42.75
51928;BME280;37953;52.806;18.270;2023-10-08T12:45:31;101243.34;;;13.48;42.76
51928;BME280;37953;52.806;18.270;2023-10-08T12:48:00;101240.72;;;13.45;41.56
51928;BME280;37953;52.806;18.270;2023-10-08T12:50:28;101237.25;;;13.40;41.12
51928;BME280;37953;52.806;18.270;2023-10-08T12:53:17;101242.47;;;13.44;41.04
51928;BME280;37953;52.806;18.270;2023-10-08T12:55:43;101234.63;;;13.43;40.68
51928;BME280;37953;52.806;18.270;2023-10-08T12:58:10;101232.91;;;13.45;41.12
51928;BME280;37953;52.806;18.270;2023-10-08T13:00:37;101250.28;;;13.48;42.11
51928;BME280;37953;52.806;18.270;2023-10-08T13:03:17;101236.38;;;13.50;42.17
51928;BME280;37953;52.806;18.270;2023-10-08T13:05:52;101238.13;;;13.50;41.81
51928;BME280;37953;52.806;18.270;2023-10-08T13:08:19;101242.50;;;13.54;42.72
51928;BME280;37953;52.806;18.270;2023-10-08T13:10:47;101245.13;;;13.55;43.21
51928;BME280;37953;52.806;18.270;2023-10-08T13:13:13;101242.50;;;13.55;42.67